sensor_id;sensor_type;location;lat;lon;timestamp;P1;durP1;ratioP1;P2;durP2;ratioP2
6251;SDS011;3159;52.414;9.784;2023-03-26T00:01:04;5.33;;;2.50;;
6251;SDS011;3159;52.414;9.784;2023-03-26T00:03:32;4.47;;;2.30;;
6251;SDS011;3159;52.414;9.784;2023-03-26T00:09:04;5.57;;;2.43;;
6251;SDS011;3159;52.414;9.784;2023-03-26T00:11:31;5.67;;;2.80;;
6251;SDS011;3159;52.414;9.784;2023-03-26T00:14:00;4.80;;;2.60;;
6251;SDS011;3159;52.414;9.784;2023-03-26T00:16:28;5.67;;;2.70;;
6251;SDS011;3159;52.414;9.784;2023-03-26T00:18:56;3.93;;;2.90;;
6251;SDS011;3159;52.414;9.784;2023-03-26T00:21:24;5.10;;;2.97;;
6251;SDS011;3159;52.414;9.784;2023-03-26T00:23:53;7.90;;;2.50;;
6251;SDS011;3159;52.414;9.784;2023-03-26T00:26:20;7.53;;;2.80;;
6251;SDS011;3159;52.414;9.784;2023-03-26T00:28:48;3.63;;;2.53;;
6251;SDS011;3159;52.414;9.784;2023-03-26T00:31:17;7.33;;;2.60;;
6251;SDS011;3159;52.414;9.784;2023-03-26T00:33:44;7.70;;;2.53;;
6251;SDS011;3159;52.414;9.784;2023-03-26T00:36:12;4.43;;;2.30;;
6251;SDS011;3159;52.414;9.784;2023-03-26T00:38:41;6.40;;;1.97;;
6251;SDS011;3159;52.414;9.784;2023-03-26T00:41:11;4.77;;;2.47;;
6251;SDS011;3159;52.414;9.784;2023-03-26T00:43:46;5.50;;;1.90;;
6251;SDS011;3159;52.414;9.784;2023-03-26T00:46:14;5.53;;;1.90;;
6251;SDS011;3159;52.414;9.784;2023-03-26T00:48:43;5.40;;;2.07;;
6251;SDS011;3159;52.414;9.784;2023-03-26T00:51:10;5.17;;;1.83;;
6251;SDS011;3159;52.414;9.784;2023-03-26T00:53:39;7.03;;;2.70;;
6251;SDS011;3159;52.414;9.784;2023-03-26T00:56:07;2.73;;;1.83;;
6251;SDS011;3159;52.414;9.784;2023-03-26T00:58:34;3.40;;;1.40;;
6251;SDS011;3159;52.414;9.784;2023-03-26T01:01:03;5.20;;;2.03;;
6251;SDS011;3159;52.414;9.784;2023-03-26T01:03:32;5.57;;;1.37;;
6251;SDS011;3159;52.414;9.784;2023-03-26T01:06:04;5.80;;;1.80;;
6251;SDS011;3159;52.414;9.784;2023-03-26T01:08:33;4.50;;;1.80;;
6251;SDS011;3159;52.414;9.784;2023-03-26T01:11:04;4.07;;;1.80;;
6251;SDS011;3159;52.414;9.784;2023-03-26T01:13:37;6.73;;;1.67;;
6251;SDS011;3159;52.414;9.784;2023-03-26T01:16:08;3.60;;;1.30;;
6251;SDS011;3159;52.414;9.784;2023-03-26T01:18:44;5.43;;;1.33;;
6251;SDS011;3159;52.414;9.784;2023-03-26T01:21:14;4.27;;;1.60;;
6251;SDS011;3159;52.414;9.784;2023-03-26T01:23:47;5.37;;;1.53;;
6251;SDS011;3159;52.414;9.784;2023-03-26T01:26:27;4.00;;;1.60;;
6251;SDS011;3159;52.414;9.784;2023-03-26T01:29:05;5.50;;;1.60;;
6251;SDS011;3159;52.414;9.784;2023-03-26T01:31:39;3.77;;;1.30;;
6251;SDS011;3159;52.414;9.784;2023-03-26T01:34:14;4.77;;;1.80;;
6251;SDS011;3159;52.414;9.784;2023-03-26T01:36:47;5.27;;;1.50;;
6251;SDS011;3159;52.414;9.784;2023-03-26T01:39:22;4.73;;;1.60;;
6251;SDS011;3159;52.414;9.784;2023-03-26T01:41:53;5.67;;;1.47;;
6251;SDS011;3159;52.414;9.784;2023-03-26T01:44:25;6.97;;;1.77;;
6251;SDS011;3159;52.414;9.784;2023-03-26T01:46:55;5.03;;;1.30;;
6251;SDS011;3159;52.414;9.784;2023-03-26T01:49:25;5.53;;;1.50;;
6251;SDS011;3159;52.414;9.784;2023-03-26T01:51:53;3.50;;;1.10;;
6251;SDS011;3159;52.414;9.784;2023-03-26T01:54:23;4.73;;;1.17;;
6251;SDS011;3159;52.414;9.784;2023-03-26T01:56:56;5.03;;;1.40;;
6251;SDS011;3159;52.414;9.784;2023-03-26T01:59:35;5.27;;;1.60;;
6251;SDS011;3159;52.414;9.784;2023-03-26T02:02:20;4.03;;;1.50;;
6251;SDS011;3159;52.414;9.784;2023-03-26T02:04:53;2.77;;;1.20;;
6251;SDS011;3159;52.414;9.784;2023-03-26T02:07:25;8.20;;;1.10;;
6251;SDS011;3159;52.414;9.784;2023-03-26T02:10:00;4.53;;;1.00;;
6251;SDS011;3159;52.414;9.784;2023-03-26T02:12:31;3.83;;;1.00;;
6251;SDS011;3159;52.414;9.784;2023-03-26T02:14:58;5.20;;;0.97;;
6251;SDS011;3159;52.414;9.784;2023-03-26T02:17:26;4.00;;;0.90;;
6251;SDS011;3159;52.414;9.784;2023-03-26T02:19:54;3.63;;;1.00;;
6251;SDS011;3159;52.414;9.784;2023-03-26T02:22:21;3.10;;;1.40;;
6251;SDS011;3159;52.414;9.784;2023-03-26T02:24:54;1.83;;;0.60;;
6251;SDS011;3159;52.414;9.784;2023-03-26T02:27:22;3.93;;;0.90;;
6251;SDS011;3159;52.414;9.784;2023-03-26T02:29:49;3.20;;;1.00;;
6251;SDS011;3159;52.414;9.784;2023-03-26T02:32:15;6.70;;;1.13;;
6251;SDS011;3159;52.414;9.784;2023-03-26T02:34:44;3.43;;;1.10;;
6251;SDS011;3159;52.414;9.784;2023-03-26T02:37:11;3.23;;;0.80;;
6251;SDS011;3159;52.414;9.784;2023-03-26T02:39:38;2.30;;;0.90;;
6251;SDS011;3159;52.414;9.784;2023-03-26T02:42:05;4.03;;;1.00;;
6251;SDS011;3159;52.414;9.784;2023-03-26T02:44:33;5.87;;;1.00;;
6251;SDS011;3159;52.414;9.784;2023-03-26T02:47:00;3.43;;;0.80;;
6251;SDS011;3159;52.414;9.784;2023-03-26T02:49:26;3.50;;;1.03;;
6251;SDS011;3159;52.414;9.784;2023-03-26T02:51:54;3.13;;;0.90;;
6251;SDS011;3159;52.414;9.784;2023-03-26T02:54:21;4.43;;;0.70;;
6251;SDS011;3159;52.414;9.784;2023-03-26T02:56:47;2.20;;;1.00;;
6251;SDS011;3159;52.414;9.784;2023-03-26T02:59:14;3.20;;;1.20;;
6251;SDS011;3159;52.414;9.784;2023-03-26T03:01:42;2.03;;;0.80;;
6251;SDS011;3159;52.414;9.784;2023-03-26T03:04:10;3.77;;;0.73;;
6251;SDS011;3159;52.414;9.784;2023-03-26T03:06:38;2.83;;;0.90;;
6251;SDS011;3159;52.414;9.784;2023-03-26T03:09:05;4.33;;;1.00;;
6251;SDS011;3159;52.414;9.784;2023-03-26T03:11:33;3.80;;;1.17;;
6251;SDS011;3159;52.414;9.784;2023-03-26T03:14:00;3.90;;;1.03;;
6251;SDS011;3159;52.414;9.784;2023-03-26T03:16:28;2.50;;;1.00;;
6251;SDS011;3159;52.414;9.784;2023-03-26T03:18:56;4.33;;;1.13;;
6251;SDS011;3159;52.414;9.784;2023-03-26T03:21:24;6.47;;;1.10;;
6251;SDS011;3159;52.414;9.784;2023-03-26T03:23:52;2.90;;;1.07;;
6251;SDS011;3159;52.414;9.784;2023-03-26T03:26:19;4.50;;;1.17;;
6251;SDS011;3159;52.414;9.784;2023-03-26T03:28:51;4.10;;;1.20;;
6251;SDS011;3159;52.414;9.784;2023-03-26T03:31:19;6.10;;;1.60;;
6251;SDS011;3159;52.414;9.784;2023-03-26T03:33:46;3.20;;;1.20;;
6251;SDS011;3159;52.414;9.784;2023-03-26T03:36:15;2.43;;;1.10;;
6251;SDS011;3159;52.414;9.784;2023-03-26T03:38:43;2.80;;;1.20;;
6251;SDS011;3159;52.414;9.784;2023-03-26T03:41:10;6.70;;;1.10;;
6251;SDS011;3159;52.414;9.784;2023-03-26T03:43:37;4.23;;;1.20;;
6251;SDS011;3159;52.414;9.784;2023-03-26T03:46:04;6.43;;;1.30;;
6251;SDS011;3159;52.414;9.784;2023-03-26T03:48:30;5.70;;;1.63;;
6251;SDS011;3159;52.414;9.784;2023-03-26T03:50:57;2.40;;;1.20;;
6251;SDS011;3159;52.414;9.784;2023-03-26T03:53:26;2.47;;;1.20;;
6251;SDS011;3159;52.414;9.784;2023-03-26T03:55:53;4.33;;;1.00;;
6251;SDS011;3159;52.414;9.784;2023-03-26T03:58:20;3.07;;;1.10;;
6251;SDS011;3159;52.414;9.784;2023-03-26T04:00:49;4.13;;;0.73;;
6251;SDS011;3159;52.414;9.784;2023-03-26T04:03:18;5.27;;;1.20;;
6251;SDS011;3159;52.414;9.784;2023-03-26T04:05:45;3.03;;;0.97;;
6251;SDS011;3159;52.414;9.784;2023-03-26T04:08:13;5.77;;;1.00;;
6251;SDS011;3159;52.414;9.784;2023-03-26T04:10:43;3.00;;;1.00;;
6251;SDS011;3159;52.414;9.784;2023-03-26T04:13:10;3.03;;;1.30;;
6251;SDS011;3159;52.414;9.784;2023-03-26T04:15:37;2.27;;;0.90;;
6251;SDS011;3159;52.414;9.784;2023-03-26T04:18:05;4.63;;;1.13;;
6251;SDS011;3159;52.414;9.784;2023-03-26T04:20:34;3.40;;;1.00;;
6251;SDS011;3159;52.414;9.784;2023-03-26T04:23:02;4.23;;;1.07;;
6251;SDS011;3159;52.414;9.784;2023-03-26T04:25:29;7.23;;;1.40;;
6251;SDS011;3159;52.414;9.784;2023-03-26T04:27:58;3.97;;;1.50;;
6251;SDS011;3159;52.414;9.784;2023-03-26T04:30:30;4.30;;;1.10;;
6251;SDS011;3159;52.414;9.784;2023-03-26T04:32:58;4.27;;;1.47;;
6251;SDS011;3159;52.414;9.784;2023-03-26T04:35:28;4.13;;;1.50;;
6251;SDS011;3159;52.414;9.784;2023-03-26T04:37:59;3.50;;;1.40;;
6251;SDS011;3159;52.414;9.784;2023-03-26T04:40:30;6.57;;;1.50;;
6251;SDS011;3159;52.414;9.784;2023-03-26T04:43:00;5.60;;;1.63;;
6251;SDS011;3159;52.414;9.784;2023-03-26T04:45:27;5.13;;;1.43;;
6251;SDS011;3159;52.414;9.784;2023-03-26T04:47:55;5.60;;;1.60;;
6251;SDS011;3159;52.414;9.784;2023-03-26T04:50:22;3.07;;;1.60;;
6251;SDS011;3159;52.414;9.784;2023-03-26T04:52:50;3.90;;;1.43;;
6251;SDS011;3159;52.414;9.784;2023-03-26T04:55:20;3.87;;;1.77;;
6251;SDS011;3159;52.414;9.784;2023-03-26T04:57:50;7.97;;;2.07;;
6251;SDS011;3159;52.414;9.784;2023-03-26T05:00:23;6.57;;;2.13;;
6251;SDS011;3159;52.414;9.784;2023-03-26T05:02:49;6.80;;;1.70;;
6251;SDS011;3159;52.414;9.784;2023-03-26T05:05:20;4.87;;;1.70;;
6251;SDS011;3159;52.414;9.784;2023-03-26T05:07:47;9.93;;;2.10;;
6251;SDS011;3159;52.414;9.784;2023-03-26T05:10:14;4.43;;;1.67;;
6251;SDS011;3159;52.414;9.784;2023-03-26T05:12:44;4.63;;;1.70;;
6251;SDS011;3159;52.414;9.784;2023-03-26T05:15:11;5.17;;;1.87;;
6251;SDS011;3159;52.414;9.784;2023-03-26T05:17:40;4.93;;;1.70;;
6251;SDS011;3159;52.414;9.784;2023-03-26T05:20:12;7.00;;;2.17;;
6251;SDS011;3159;52.414;9.784;2023-03-26T05:22:46;7.77;;;1.80;;
6251;SDS011;3159;52.414;9.784;2023-03-26T05:25:13;4.50;;;1.60;;
6251;SDS011;3159;52.414;9.784;2023-03-26T05:27:40;3.90;;;1.70;;
6251;SDS011;3159;52.414;9.784;2023-03-26T05:30:07;6.43;;;2.00;;
6251;SDS011;3159;52.414;9.784;2023-03-26T05:32:37;6.33;;;1.90;;
6251;SDS011;3159;52.414;9.784;2023-03-26T05:35:06;5.47;;;1.90;;
6251;SDS011;3159;52.414;9.784;2023-03-26T05:37:34;8.33;;;2.27;;
6251;SDS011;3159;52.414;9.784;2023-03-26T05:40:03;3.70;;;2.10;;
6251;SDS011;3159;52.414;9.784;2023-03-26T05:42:36;6.87;;;2.40;;
6251;SDS011;3159;52.414;9.784;2023-03-26T05:45:04;8.60;;;2.70;;
6251;SDS011;3159;52.414;9.784;2023-03-26T05:47:32;6.20;;;2.57;;
6251;SDS011;3159;52.414;9.784;2023-03-26T05:49:59;6.07;;;2.30;;
6251;SDS011;3159;52.414;9.784;2023-03-26T05:52:27;6.43;;;2.43;;
6251;SDS011;3159;52.414;9.784;2023-03-26T05:54:54;6.23;;;2.80;;
6251;SDS011;3159;52.414;9.784;2023-03-26T05:57:20;7.03;;;2.90;;
6251;SDS011;3159;52.414;9.784;2023-03-26T05:59:48;8.87;;;3.20;;
6251;SDS011;3159;52.414;9.784;2023-03-26T06:02:14;7.10;;;2.70;;
6251;SDS011;3159;52.414;9.784;2023-03-26T06:04:41;7.57;;;2.50;;
6251;SDS011;3159;52.414;9.784;2023-03-26T06:07:09;7.23;;;3.17;;
6251;SDS011;3159;52.414;9.784;2023-03-26T06:09:38;9.17;;;2.80;;
6251;SDS011;3159;52.414;9.784;2023-03-26T06:12:05;8.63;;;2.67;;
6251;SDS011;3159;52.414;9.784;2023-03-26T06:14:33;6.53;;;2.70;;
6251;SDS011;3159;52.414;9.784;2023-03-26T06:17:00;8.17;;;2.90;;
6251;SDS011;3159;52.414;9.784;2023-03-26T06:19:27;9.07;;;2.77;;
6251;SDS011;3159;52.414;9.784;2023-03-26T06:21:54;5.93;;;2.60;;
6251;SDS011;3159;52.414;9.784;2023-03-26T06:24:21;9.70;;;2.70;;
6251;SDS011;3159;52.414;9.784;2023-03-26T06:26:49;5.07;;;2.47;;
6251;SDS011;3159;52.414;9.784;2023-03-26T06:29:16;8.10;;;2.80;;
6251;SDS011;3159;52.414;9.784;2023-03-26T06:31:43;9.37;;;2.77;;
6251;SDS011;3159;52.414;9.784;2023-03-26T06:34:10;6.03;;;2.83;;
6251;SDS011;3159;52.414;9.784;2023-03-26T06:36:36;5.53;;;2.90;;
6251;SDS011;3159;52.414;9.784;2023-03-26T06:39:03;7.30;;;2.77;;
6251;SDS011;3159;52.414;9.784;2023-03-26T06:41:31;6.47;;;2.40;;
6251;SDS011;3159;52.414;9.784;2023-03-26T06:43:59;5.83;;;2.70;;
6251;SDS011;3159;52.414;9.784;2023-03-26T06:46:26;7.30;;;2.70;;
6251;SDS011;3159;52.414;9.784;2023-03-26T06:48:53;10.20;;;2.73;;
6251;SDS011;3159;52.414;9.784;2023-03-26T06:51:20;7.80;;;2.57;;
6251;SDS011;3159;52.414;9.784;2023-03-26T06:53:47;8.93;;;2.80;;
6251;SDS011;3159;52.414;9.784;2023-03-26T06:56:13;8.20;;;2.43;;
6251;SDS011;3159;52.414;9.784;2023-03-26T06:58:40;8.33;;;2.43;;
6251;SDS011;3159;52.414;9.784;2023-03-26T07:01:08;5.83;;;2.30;;
6251;SDS011;3159;52.414;9.784;2023-03-26T07:03:35;4.87;;;2.13;;
6251;SDS011;3159;52.414;9.784;2023-03-26T07:06:02;10.67;;;2.40;;
6251;SDS011;3159;52.414;9.784;2023-03-26T07:08:29;8.87;;;2.53;;
6251;SDS011;3159;52.414;9.784;2023-03-26T07:10:56;6.53;;;2.30;;
6251;SDS011;3159;52.414;9.784;2023-03-26T07:13:23;5.30;;;2.33;;
6251;SDS011;3159;52.414;9.784;2023-03-26T07:15:50;5.13;;;1.80;;
6251;SDS011;3159;52.414;9.784;2023-03-26T07:18:18;7.10;;;1.97;;
6251;SDS011;3159;52.414;9.784;2023-03-26T07:20:45;7.73;;;2.30;;
6251;SDS011;3159;52.414;9.784;2023-03-26T07:23:12;7.33;;;1.90;;
6251;SDS011;3159;52.414;9.784;2023-03-26T07:25:44;6.70;;;2.50;;
6251;SDS011;3159;52.414;9.784;2023-03-26T07:28:12;7.73;;;2.10;;
6251;SDS011;3159;52.414;9.784;2023-03-26T07:30:47;6.50;;;1.87;;
6251;SDS011;3159;52.414;9.784;2023-03-26T07:33:27;9.57;;;2.17;;
6251;SDS011;3159;52.414;9.784;2023-03-26T07:35:59;8.00;;;2.33;;
6251;SDS011;3159;52.414;9.784;2023-03-26T07:38:39;9.77;;;2.00;;
6251;SDS011;3159;52.414;9.784;2023-03-26T07:41:14;7.17;;;1.70;;
6251;SDS011;3159;52.414;9.784;2023-03-26T07:44:00;4.13;;;1.63;;
6251;SDS011;3159;52.414;9.784;2023-03-26T07:46:36;6.13;;;1.60;;
6251;SDS011;3159;52.414;9.784;2023-03-26T07:49:07;7.30;;;1.47;;
6251;SDS011;3159;52.414;9.784;2023-03-26T07:51:36;7.90;;;1.70;;
6251;SDS011;3159;52.414;9.784;2023-03-26T07:54:04;5.67;;;1.77;;
6251;SDS011;3159;52.414;9.784;2023-03-26T07:56:32;7.67;;;1.40;;
6251;SDS011;3159;52.414;9.784;2023-03-26T07:59:05;6.47;;;1.90;;
6251;SDS011;3159;52.414;9.784;2023-03-26T08:01:45;3.93;;;1.43;;
6251;SDS011;3159;52.414;9.784;2023-03-26T08:04:38;5.80;;;1.63;;
6251;SDS011;3159;52.414;9.784;2023-03-26T08:07:20;7.00;;;1.50;;
6251;SDS011;3159;52.414;9.784;2023-03-26T08:09:58;6.07;;;1.20;;
6251;SDS011;3159;52.414;9.784;2023-03-26T08:12:34;7.77;;;1.97;;
6251;SDS011;3159;52.414;9.784;2023-03-26T08:15:09;4.47;;;1.40;;
6251;SDS011;3159;52.414;9.784;2023-03-26T08:17:41;5.37;;;1.70;;
6251;SDS011;3159;52.414;9.784;2023-03-26T08:20:20;5.53;;;1.20;;
6251;SDS011;3159;52.414;9.784;2023-03-26T08:22:56;9.27;;;1.60;;
6251;SDS011;3159;52.414;9.784;2023-03-26T08:25:30;4.90;;;1.30;;
6251;SDS011;3159;52.414;9.784;2023-03-26T08:28:26;6.97;;;1.67;;
6251;SDS011;3159;52.414;9.784;2023-03-26T08:31:02;2.70;;;1.10;;
6251;SDS011;3159;52.414;9.784;2023-03-26T08:33:29;3.07;;;1.17;;
6251;SDS011;3159;52.414;9.784;2023-03-26T08:35:59;6.80;;;1.43;;
6251;SDS011;3159;52.414;9.784;2023-03-26T08:38:26;6.23;;;1.33;;
6251;SDS011;3159;52.414;9.784;2023-03-26T08:44:01;6.13;;;1.37;;
6251;SDS011;3159;52.414;9.784;2023-03-26T08:46:56;6.53;;;1.23;;
6251;SDS011;3159;52.414;9.784;2023-03-26T08:49:55;3.53;;;1.30;;
6251;SDS011;3159;52.414;9.784;2023-03-26T08:53:06;5.13;;;1.27;;
6251;SDS011;3159;52.414;9.784;2023-03-26T08:55:59;4.03;;;1.50;;
6251;SDS011;3159;52.414;9.784;2023-03-26T09:01:42;4.40;;;1.40;;
6251;SDS011;3159;52.414;9.784;2023-03-26T09:04:41;2.13;;;1.20;;
6251;SDS011;3159;52.414;9.784;2023-03-26T09:07:46;2.83;;;1.43;;
6251;SDS011;3159;52.414;9.784;2023-03-26T09:10:51;3.60;;;1.30;;
6251;SDS011;3159;52.414;9.784;2023-03-26T09:19:58;2.40;;;1.33;;
6251;SDS011;3159;52.414;9.784;2023-03-26T09:22:52;7.97;;;2.17;;
6251;SDS011;3159;52.414;9.784;2023-03-26T09:25:50;5.57;;;2.03;;
6251;SDS011;3159;52.414;9.784;2023-03-26T09:28:48;5.00;;;1.70;;
6251;SDS011;3159;52.414;9.784;2023-03-26T09:34:39;7.17;;;2.13;;
6251;SDS011;3159;52.414;9.784;2023-03-26T09:37:24;7.33;;;2.10;;
6251;SDS011;3159;52.414;9.784;2023-03-26T09:40:02;6.37;;;2.20;;
6251;SDS011;3159;52.414;9.784;2023-03-26T09:42:43;6.13;;;2.10;;
6251;SDS011;3159;52.414;9.784;2023-03-26T09:45:15;5.37;;;2.20;;
6251;SDS011;3159;52.414;9.784;2023-03-26T09:51:12;8.50;;;2.43;;
6251;SDS011;3159;52.414;9.784;2023-03-26T09:53:56;6.87;;;2.40;;
6251;SDS011;3159;52.414;9.784;2023-03-26T09:56:46;5.50;;;2.40;;
6251;SDS011;3159;52.414;9.784;2023-03-26T10:02:28;5.97;;;2.23;;
6251;SDS011;3159;52.414;9.784;2023-03-26T10:05:12;8.60;;;2.77;;
6251;SDS011;3159;52.414;9.784;2023-03-26T10:08:05;8.57;;;3.50;;
6251;SDS011;3159;52.414;9.784;2023-03-26T10:10:47;8.07;;;2.10;;
6251;SDS011;3159;52.414;9.784;2023-03-26T10:13:23;10.27;;;2.27;;
6251;SDS011;3159;52.414;9.784;2023-03-26T10:15:59;4.67;;;2.37;;
6251;SDS011;3159;52.414;9.784;2023-03-26T10:18:38;4.60;;;1.90;;
6251;SDS011;3159;52.414;9.784;2023-03-26T10:21:16;8.77;;;2.37;;
6251;SDS011;3159;52.414;9.784;2023-03-26T10:23:51;7.43;;;2.27;;
6251;SDS011;3159;52.414;9.784;2023-03-26T10:26:30;4.43;;;1.73;;
6251;SDS011;3159;52.414;9.784;2023-03-26T10:29:17;2.93;;;1.60;;
6251;SDS011;3159;52.414;9.784;2023-03-26T10:31:59;5.07;;;2.27;;
6251;SDS011;3159;52.414;9.784;2023-03-26T10:34:52;6.13;;;2.07;;
6251;SDS011;3159;52.414;9.784;2023-03-26T10:37:35;6.43;;;1.90;;
6251;SDS011;3159;52.414;9.784;2023-03-26T10:40:18;4.93;;;2.10;;
6251;SDS011;3159;52.414;9.784;2023-03-26T10:43:06;8.53;;;1.63;;
6251;SDS011;3159;52.414;9.784;2023-03-26T10:46:09;4.97;;;1.87;;
6251;SDS011;3159;52.414;9.784;2023-03-26T10:48:56;7.20;;;1.97;;
6251;SDS011;3159;52.414;9.784;2023-03-26T10:51:45;6.87;;;1.60;;
6251;SDS011;3159;52.414;9.784;2023-03-26T10:54:20;3.63;;;1.70;;
6251;SDS011;3159;52.414;9.784;2023-03-26T10:56:54;3.27;;;1.70;;
6251;SDS011;3159;52.414;9.784;2023-03-26T10:59:23;3.23;;;1.53;;
6251;SDS011;3159;52.414;9.784;2023-03-26T11:01:55;7.87;;;1.67;;
6251;SDS011;3159;52.414;9.784;2023-03-26T11:04:33;3.80;;;2.30;;
6251;SDS011;3159;52.414;9.784;2023-03-26T11:07:10;4.70;;;1.50;;
6251;SDS011;3159;52.414;9.784;2023-03-26T11:09:46;3.77;;;1.20;;
6251;SDS011;3159;52.414;9.784;2023-03-26T11:12:20;3.70;;;1.40;;
6251;SDS011;3159;52.414;9.784;2023-03-26T11:14:55;4.73;;;1.40;;
6251;SDS011;3159;52.414;9.784;2023-03-26T11:17:36;3.87;;;1.40;;
6251;SDS011;3159;52.414;9.784;2023-03-26T11:20:19;3.30;;;1.60;;
6251;SDS011;3159;52.414;9.784;2023-03-26T11:23:00;3.30;;;1.50;;
6251;SDS011;3159;52.414;9.784;2023-03-26T11:25:37;4.73;;;1.50;;
6251;SDS011;3159;52.414;9.784;2023-03-26T11:28:18;4.47;;;1.60;;
6251;SDS011;3159;52.414;9.784;2023-03-26T11:30:57;3.47;;;1.57;;
6251;SDS011;3159;52.414;9.784;2023-03-26T11:33:34;6.27;;;1.70;;
6251;SDS011;3159;52.414;9.784;2023-03-26T11:36:04;3.90;;;1.60;;
6251;SDS011;3159;52.414;9.784;2023-03-26T11:38:36;4.83;;;1.63;;
6251;SDS011;3159;52.414;9.784;2023-03-26T11:41:10;5.73;;;1.77;;
6251;SDS011;3159;52.414;9.784;2023-03-26T11:43:39;6.03;;;1.90;;
6251;SDS011;3159;52.414;9.784;2023-03-26T11:46:08;4.97;;;1.73;;
6251;SDS011;3159;52.414;9.784;2023-03-26T11:48:38;4.83;;;1.33;;
6251;SDS011;3159;52.414;9.784;2023-03-26T11:51:09;2.87;;;1.50;;
6251;SDS011;3159;52.414;9.784;2023-03-26T11:53:41;7.33;;;1.73;;
6251;SDS011;3159;52.414;9.784;2023-03-26T11:56:12;5.97;;;1.70;;
6251;SDS011;3159;52.414;9.784;2023-03-26T11:58:46;6.10;;;2.00;;
6251;SDS011;3159;52.414;9.784;2023-03-26T12:01:17;5.40;;;1.90;;
6251;SDS011;3159;52.414;9.784;2023-03-26T12:03:55;8.00;;;1.67;;
6251;SDS011;3159;52.414;9.784;2023-03-26T12:06:27;4.67;;;1.80;;
6251;SDS011;3159;52.414;9.784;2023-03-26T12:08:58;6.53;;;1.70;;
6251;SDS011;3159;52.414;9.784;2023-03-26T12:11:25;6.37;;;1.97;;
6251;SDS011;3159;52.414;9.784;2023-03-26T12:13:57;6.07;;;1.83;;
6251;SDS011;3159;52.414;9.784;2023-03-26T12:16:26;4.90;;;1.83;;
6251;SDS011;3159;52.414;9.784;2023-03-26T12:18:57;4.07;;;1.57;;
6251;SDS011;3159;52.414;9.784;2023-03-26T12:21:25;5.63;;;2.03;;
6251;SDS011;3159;52.414;9.784;2023-03-26T12:23:54;5.57;;;1.83;;
6251;SDS011;3159;52.414;9.784;2023-03-26T12:26:36;6.13;;;2.03;;
6251;SDS011;3159;52.414;9.784;2023-03-26T12:29:07;5.93;;;2.27;;
6251;SDS011;3159;52.414;9.784;2023-03-26T12:31:40;4.83;;;1.90;;
6251;SDS011;3159;52.414;9.784;2023-03-26T12:34:12;7.40;;;2.13;;
6251;SDS011;3159;52.414;9.784;2023-03-26T12:36:45;6.60;;;2.10;;
6251;SDS011;3159;52.414;9.784;2023-03-26T12:39:27;7.57;;;2.00;;
6251;SDS011;3159;52.414;9.784;2023-03-26T12:42:05;4.53;;;1.90;;
6251;SDS011;3159;52.414;9.784;2023-03-26T12:44:50;6.50;;;2.00;;
6251;SDS011;3159;52.414;9.784;2023-03-26T12:47:18;5.37;;;2.00;;
6251;SDS011;3159;52.414;9.784;2023-03-26T12:49:47;4.87;;;1.73;;
6251;SDS011;3159;52.414;9.784;2023-03-26T12:52:22;9.40;;;1.83;;
6251;SDS011;3159;52.414;9.784;2023-03-26T12:54:59;6.30;;;1.90;;
6251;SDS011;3159;52.414;9.784;2023-03-26T12:57:36;7.50;;;1.97;;
6251;SDS011;3159;52.414;9.784;2023-03-26T13:06:07;3.97;;;2.00;;
6251;SDS011;3159;52.414;9.784;2023-03-26T13:09:04;8.97;;;2.20;;
6251;SDS011;3159;52.414;9.784;2023-03-26T13:11:58;8.43;;;2.17;;
6251;SDS011;3159;52.414;9.784;2023-03-26T13:14:44;8.53;;;2.30;;
6251;SDS011;3159;52.414;9.784;2023-03-26T13:17:22;7.93;;;1.90;;
6251;SDS011;3159;52.414;9.784;2023-03-26T13:19:57;9.53;;;3.37;;
6251;SDS011;3159;52.414;9.784;2023-03-26T13:22:38;8.57;;;2.50;;
6251;SDS011;3159;52.414;9.784;2023-03-26T13:25:21;6.47;;;2.20;;
6251;SDS011;3159;52.414;9.784;2023-03-26T13:27:58;7.27;;;2.03;;
6251;SDS011;3159;52.414;9.784;2023-03-26T13:30:36;5.50;;;2.63;;
6251;SDS011;3159;52.414;9.784;2023-03-26T13:33:18;6.47;;;1.80;;
6251;SDS011;3159;52.414;9.784;2023-03-26T13:35:58;15.37;;;2.47;;
6251;SDS011;3159;52.414;9.784;2023-03-26T13:38:32;7.37;;;2.53;;
6251;SDS011;3159;52.414;9.784;2023-03-26T13:41:06;8.70;;;2.67;;
6251;SDS011;3159;52.414;9.784;2023-03-26T13:43:41;8.43;;;2.80;;
6251;SDS011;3159;52.414;9.784;2023-03-26T13:46:27;7.93;;;2.43;;
6251;SDS011;3159;52.414;9.784;2023-03-26T13:48:58;8.80;;;2.23;;
6251;SDS011;3159;52.414;9.784;2023-03-26T13:51:29;9.27;;;2.97;;
6251;SDS011;3159;52.414;9.784;2023-03-26T13:54:03;6.33;;;2.50;;
6251;SDS011;3159;52.414;9.784;2023-03-26T13:56:37;8.73;;;2.97;;
6251;SDS011;3159;52.414;9.784;2023-03-26T13:59:07;9.57;;;2.83;;
6251;SDS011;3159;52.414;9.784;2023-03-26T14:01:42;12.53;;;3.67;;
6251;SDS011;3159;52.414;9.784;2023-03-26T14:04:14;5.30;;;2.23;;
6251;SDS011;3159;52.414;9.784;2023-03-26T14:06:47;9.70;;;2.67;;
6251;SDS011;3159;52.414;9.784;2023-03-26T14:09:23;9.33;;;2.60;;
6251;SDS011;3159;52.414;9.784;2023-03-26T14:12:00;8.93;;;2.57;;
6251;SDS011;3159;52.414;9.784;2023-03-26T14:14:49;9.10;;;2.77;;
6251;SDS011;3159;52.414;9.784;2023-03-26T14:17:21;9.17;;;2.47;;
6251;SDS011;3159;52.414;9.784;2023-03-26T14:20:01;6.73;;;2.00;;
6251;SDS011;3159;52.414;9.784;2023-03-26T14:22:57;8.40;;;2.23;;
6251;SDS011;3159;52.414;9.784;2023-03-26T14:25:49;7.20;;;1.87;;
6251;SDS011;3159;52.414;9.784;2023-03-26T14:28:35;12.30;;;2.77;;
6251;SDS011;3159;52.414;9.784;2023-03-26T14:31:22;9.50;;;2.03;;
6251;SDS011;3159;52.414;9.784;2023-03-26T14:34:03;5.73;;;2.23;;
6251;SDS011;3159;52.414;9.784;2023-03-26T14:36:59;6.77;;;2.37;;
6251;SDS011;3159;52.414;9.784;2023-03-26T14:39:45;6.00;;;2.13;;
6251;SDS011;3159;52.414;9.784;2023-03-26T14:42:24;5.33;;;2.00;;
6251;SDS011;3159;52.414;9.784;2023-03-26T14:45:03;6.73;;;2.17;;
6251;SDS011;3159;52.414;9.784;2023-03-26T14:47:47;5.50;;;2.53;;
6251;SDS011;3159;52.414;9.784;2023-03-26T14:50:33;8.53;;;2.27;;
6251;SDS011;3159;52.414;9.784;2023-03-26T14:53:17;5.83;;;2.37;;
6251;SDS011;3159;52.414;9.784;2023-03-26T14:56:09;6.03;;;2.33;;
6251;SDS011;3159;52.414;9.784;2023-03-26T15:02:22;5.07;;;2.00;;
6251;SDS011;3159;52.414;9.784;2023-03-26T15:08:41;5.33;;;1.80;;
6251;SDS011;3159;52.414;9.784;2023-03-26T15:11:44;6.63;;;1.83;;
6251;SDS011;3159;52.414;9.784;2023-03-26T15:29:40;4.53;;;1.63;;
6251;SDS011;3159;52.414;9.784;2023-03-26T15:32:29;8.57;;;1.70;;
6251;SDS011;3159;52.414;9.784;2023-03-26T15:41:28;5.93;;;1.87;;
6251;SDS011;3159;52.414;9.784;2023-03-26T15:44:04;7.97;;;2.07;;
6251;SDS011;3159;52.414;9.784;2023-03-26T15:46:59;7.53;;;1.70;;
6251;SDS011;3159;52.414;9.784;2023-03-26T15:49:45;7.43;;;2.07;;
6251;SDS011;3159;52.414;9.784;2023-03-26T15:52:28;3.93;;;1.50;;
6251;SDS011;3159;52.414;9.784;2023-03-26T15:55:01;5.30;;;1.83;;
6251;SDS011;3159;52.414;9.784;2023-03-26T15:57:36;5.17;;;1.93;;
6251;SDS011;3159;52.414;9.784;2023-03-26T16:00:17;6.63;;;1.80;;
6251;SDS011;3159;52.414;9.784;2023-03-26T16:02:50;5.33;;;1.80;;
6251;SDS011;3159;52.414;9.784;2023-03-26T16:05:34;9.07;;;1.87;;
6251;SDS011;3159;52.414;9.784;2023-03-26T16:08:22;8.73;;;1.80;;
6251;SDS011;3159;52.414;9.784;2023-03-26T16:10:55;8.37;;;1.77;;
6251;SDS011;3159;52.414;9.784;2023-03-26T16:13:32;6.73;;;1.73;;
6251;SDS011;3159;52.414;9.784;2023-03-26T16:18:54;5.10;;;2.07;;
6251;SDS011;3159;52.414;9.784;2023-03-26T16:24:21;7.60;;;2.07;;
6251;SDS011;3159;52.414;9.784;2023-03-26T16:26:59;8.67;;;1.93;;
6251;SDS011;3159;52.414;9.784;2023-03-26T16:29:31;8.03;;;2.13;;
6251;SDS011;3159;52.414;9.784;2023-03-26T16:32:16;6.67;;;2.10;;
6251;SDS011;3159;52.414;9.784;2023-03-26T16:34:53;7.53;;;2.03;;
6251;SDS011;3159;52.414;9.784;2023-03-26T16:37:33;4.27;;;1.57;;
6251;SDS011;3159;52.414;9.784;2023-03-26T16:40:25;7.20;;;2.10;;
6251;SDS011;3159;52.414;9.784;2023-03-26T16:43:10;8.53;;;2.03;;
6251;SDS011;3159;52.414;9.784;2023-03-26T16:45:48;10.60;;;2.10;;
6251;SDS011;3159;52.414;9.784;2023-03-26T16:48:23;9.10;;;2.10;;
6251;SDS011;3159;52.414;9.784;2023-03-26T16:51:00;10.13;;;2.63;;
6251;SDS011;3159;52.414;9.784;2023-03-26T16:53:35;7.80;;;2.00;;
6251;SDS011;3159;52.414;9.784;2023-03-26T16:56:11;15.40;;;2.40;;
6251;SDS011;3159;52.414;9.784;2023-03-26T16:58:45;11.10;;;2.17;;
6251;SDS011;3159;52.414;9.784;2023-03-26T17:01:21;12.57;;;2.67;;
6251;SDS011;3159;52.414;9.784;2023-03-26T17:03:56;8.43;;;1.97;;